Time;durP1;ratioP1;P1;durP2;ratioP2;P2;SDS_P1;SDS_P2;PMS_P1;PMS_P2;Temp;Humidity;BMP_temperature;BMP_pressure;BME280_temperature;BME280_humidity;BME280_pressure;Samples;Min_cycle;Max_cycle;Signal;HPM_P1;HPM_P2
2022/09/18 00:00:38;;;;;;;1.17;1.00;;;22.00;46.80;;;;;;5049677;28;20053;-10
2022/09/18 00:03:05;;;;;;;1.70;1.00;;;22.10;46.80;;;;;;5049651;28;20067;-10
2022/09/18 00:05:30;;;;;;;1.63;1.00;;;22.10;46.80;;;;;;5031331;28;20383;-10
2022/09/18 00:07:56;;;;;;;1.02;0.80;;;22.00;46.80;;;;;;5048985;28;20067;-10
2022/09/18 00:10:21;;;;;;;0.80;0.70;;;22.00;46.80;;;;;;5049508;28;20064;-10
2022/09/18 00:12:47;;;;;;;1.20;0.93;;;22.10;46.80;;;;;;5048866;28;20053;-10
2022/09/18 00:15:12;;;;;;;1.05;0.90;;;22.10;46.80;;;;;;5049004;28;20132;-10
2022/09/18 00:17:39;;;;;;;0.95;0.93;;;22.00;46.70;;;;;;5048874;28;20053;-10
2022/09/18 00:20:05;;;;;;;1.83;0.90;;;22.10;46.80;;;;;;5048874;28;20108;-10
2022/09/18 00:22:31;;;;;;;1.25;0.95;;;22.00;46.80;;;;;;5048869;28;20436;-10
2022/09/18 00:24:57;;;;;;;1.67;1.05;;;22.10;46.80;;;;;;5048857;28;20056;-10
2022/09/18 00:27:22;;;;;;;1.83;1.00;;;22.00;46.70;;;;;;5049235;28;20053;-10
2022/09/18 00:29:48;;;;;;;1.08;0.82;;;22.00;46.80;;;;;;5048689;28;20197;-10
2022/09/18 00:32:14;;;;;;;1.52;1.25;;;22.00;46.80;;;;;;5049154;28;20057;-10
2022/09/18 00:34:40;;;;;;;2.67;1.25;;;22.00;46.80;;;;;;5049226;28;20135;-10
2022/09/18 00:37:06;;;;;;;1.30;1.08;;;22.10;46.80;;;;;;5048671;28;20048;-10
2022/09/18 00:39:32;;;;;;;1.00;0.90;;;22.10;46.90;;;;;;5048505;28;20053;-10
2022/09/18 00:41:57;;;;;;;1.20;0.90;;;22.00;46.80;;;;;;5047216;28;20059;-10
2022/09/18 00:44:39;;;;;;;1.35;1.02;;;22.00;46.80;;;;;;5049070;28;20073;-10
2022/09/18 00:47:11;;;;;;;1.42;1.00;;;22.00;46.80;;;;;;5048712;28;20053;-10
2022/09/18 00:49:39;;;;;;;1.75;1.23;;;22.00;46.80;;;;;;5048506;28;20094;-10
2022/09/18 00:52:06;;;;;;;2.10;1.30;;;22.00;46.80;;;;;;5048499;28;20049;-10
2022/09/18 00:54:41;;;;;;;1.00;0.73;;;22.00;46.80;;;;;;5048757;28;20069;-10
2022/09/18 00:57:11;;;;;;;1.67;1.00;;;22.00;46.70;;;;;;5049749;28;20073;-10
2022/09/18 00:59:40;;;;;;;1.45;0.90;;;22.10;46.80;;;;;;5052272;28;20056;-10
2022/09/18 01:02:06;;;;;;;1.45;1.10;;;22.00;46.80;;;;;;5051866;28;20053;-10
2022/09/18 01:04:32;;;;;;;1.30;0.80;;;22.10;46.80;;;;;;5051547;28;20482;-10
2022/09/18 01:07:05;;;;;;;1.63;0.93;;;22.00;46.80;;;;;;5051586;28;20052;-10
2022/09/18 01:09:47;;;;;;;1.60;1.00;;;22.10;46.80;;;;;;5034136;28;20486;-10
2022/09/18 01:12:38;;;;;;;1.48;0.90;;;22.00;46.70;;;;;;5051782;28;20057;-10
2022/09/18 01:15:20;;;;;;;2.17;1.10;;;22.00;46.80;;;;;;5051438;28;20052;-10
2022/09/18 01:17:59;;;;;;;1.35;0.82;;;22.00;46.80;;;;;;5051379;28;20049;-10
2022/09/18 01:20:48;;;;;;;1.48;0.90;;;22.00;46.70;;;;;;5051088;28;20072;-10
2022/09/18 01:23:45;;;;;;;2.80;1.10;;;22.00;46.80;;;;;;5049925;28;20052;-10
2022/09/18 01:26:20;;;;;;;1.83;0.90;;;22.00;46.70;;;;;;5033337;28;20057;-10
2022/09/18 01:29:09;;;;;;;1.83;1.08;;;22.00;47.30;;;;;;5048313;28;20562;-10
2022/09/18 01:31:44;;;;;;;1.77;0.88;;;22.00;46.80;;;;;;5033307;28;20056;-10
2022/09/18 01:34:32;;;;;;;1.88;1.10;;;22.00;46.80;;;;;;5051520;28;20560;-10
2022/09/18 01:37:10;;;;;;;1.40;1.00;;;22.00;46.80;;;;;;5033528;28;20049;-10
2022/09/18 01:39:50;;;;;;;1.30;0.85;;;22.00;46.80;;;;;;5031916;28;20046;-10
2022/09/18 01:42:17;;;;;;;1.00;0.90;;;22.00;46.90;;;;;;5033527;28;20056;-11
2022/09/18 01:44:45;;;;;;;1.00;0.90;;;22.00;46.90;;;;;;5033045;28;20045;-10
2022/09/18 01:47:15;;;;;;;0.80;0.80;;;22.00;46.90;;;;;;5033370;28;20110;-10
2022/09/18 01:49:46;;;;;;;0.95;0.80;;;22.00;46.80;;;;;;5032990;28;20147;-10
2022/09/18 01:52:32;;;;;;;1.08;0.85;;;22.00;46.80;;;;;;5051031;28;20048;-10
2022/09/18 01:55:03;;;;;;;1.45;0.90;;;22.00;46.70;;;;;;5033126;28;20125;-10
2022/09/18 01:57:55;;;;;;;1.27;0.98;;;22.00;46.70;;;;;;5032875;28;20060;-11
2022/09/18 02:00:21;;;;;;;0.70;0.70;;;22.00;46.80;;;;;;5033298;28;20057;-10
2022/09/18 02:03:04;;;;;;;1.30;1.15;;;22.00;46.80;;;;;;5031364;28;20538;-10
2022/09/18 02:05:41;;;;;;;0.88;0.88;;;22.00;46.80;;;;;;5033086;28;20038;-10
2022/09/18 02:08:16;;;;;;;1.98;1.25;;;22.00;46.80;;;;;;5050965;28;20049;-10
2022/09/18 02:10:51;;;;;;;1.40;1.00;;;22.00;46.70;;;;;;5031450;28;20054;-10
2022/09/18 02:13:22;;;;;;;1.10;1.00;;;22.00;46.80;;;;;;5032440;28;20049;-10
2022/09/18 02:15:48;;;;;;;2.17;1.10;;;22.00;46.80;;;;;;5033076;28;20055;-10
2022/09/18 02:18:23;;;;;;;1.52;1.10;;;22.00;46.80;;;;;;5032534;28;20061;-10
2022/09/18 02:20:50;;;;;;;1.73;1.08;;;21.90;46.80;;;;;;5049659;28;20101;-10
2022/09/18 02:23:16;;;;;;;2.05;1.10;;;22.00;46.90;;;;;;5051144;28;20057;-10
2022/09/18 02:26:06;;;;;;;1.10;1.00;;;21.90;46.80;;;;;;5048076;28;20045;-10
2022/09/18 02:28:33;;;;;;;0.70;0.70;;;22.00;46.90;;;;;;5032215;28;20427;-10
2022/09/18 02:30:59;;;;;;;1.27;1.10;;;21.90;46.80;;;;;;5050504;28;20164;-10
2022/09/18 02:33:33;;;;;;;1.20;0.90;;;21.90;46.80;;;;;;5050593;28;20545;-10
2022/09/18 02:36:28;;;;;;;0.93;0.90;;;22.00;46.90;;;;;;5050342;28;20045;-10
2022/09/18 02:39:13;;;;;;;1.65;1.00;;;21.90;46.80;;;;;;5032426;28;20060;-10
2022/09/18 02:42:01;;;;;;;1.08;0.90;;;21.90;46.90;;;;;;5032516;28;20053;-10
2022/09/18 02:44:54;;;;;;;0.95;0.80;;;21.90;46.80;;;;;;5031095;28;20508;-10
2022/09/18 02:47:51;;;;;;;1.83;1.10;;;21.90;46.90;;;;;;5048710;28;20097;-10
2022/09/18 02:50:38;;;;;;;1.70;1.10;;;21.90;46.90;;;;;;5031309;28;20049;-10
2022/09/18 02:53:42;;;;;;;1.20;0.80;;;21.90;46.90;;;;;;5032235;28;20080;-10
2022/09/18 02:56:21;;;;;;;0.95;0.73;;;21.90;46.90;;;;;;5032157;28;20478;-10
2022/09/18 02:58:57;;;;;;;1.67;1.00;;;21.90;46.80;;;;;;5032504;28;20456;-10
2022/09/18 03:01:26;;;;;;;1.25;1.00;;;21.90;46.80;;;;;;5032258;28;20593;-10
2022/09/18 03:03:52;;;;;;;1.63;0.90;;;22.00;46.80;;;;;;5049246;28;20059;-10
2022/09/18 03:06:23;;;;;;;1.00;0.82;;;21.90;46.80;;;;;;5048201;28;20098;-11
2022/09/18 03:08:48;;;;;;;2.83;0.93;;;21.90;46.80;;;;;;5032149;28;20056;-10
2022/09/18 03:11:14;;;;;;;1.25;0.90;;;21.90;46.90;;;;;;5032169;28;20085;-10
2022/09/18 03:13:42;;;;;;;1.90;1.00;;;21.90;46.80;;;;;;5049355;28;20410;-10
2022/09/18 03:16:08;;;;;;;1.33;0.98;;;21.90;46.80;;;;;;5031744;28;20052;-10
2022/09/18 03:18:34;;;;;;;1.25;0.90;;;21.90;46.90;;;;;;5049172;28;20501;-10
2022/09/18 03:20:59;;;;;;;1.40;0.82;;;21.90;46.90;;;;;;5049840;28;20087;-10
2022/09/18 03:23:25;;;;;;;1.23;1.00;;;21.90;46.90;;;;;;5048846;28;20053;-10
2022/09/18 03:25:57;;;;;;;1.02;0.80;;;21.90;46.90;;;;;;5049074;28;20102;-10
2022/09/18 03:28:23;;;;;;;1.25;0.88;;;21.90;46.90;;;;;;5049893;28;20526;-10
2022/09/18 03:30:50;;;;;;;1.50;1.10;;;21.90;46.90;;;;;;5048642;28;20147;-10
2022/09/18 03:33:17;;;;;;;1.52;1.00;;;21.90;46.90;;;;;;5047015;28;20045;-10
2022/09/18 03:35:43;;;;;;;1.50;1.00;;;21.90;46.80;;;;;;5048346;28;20482;-10
2022/09/18 03:38:09;;;;;;;1.60;1.17;;;21.80;46.80;;;;;;5048656;28;20061;-10
2022/09/18 03:40:34;;;;;;;1.67;1.08;;;21.80;46.90;;;;;;5048075;28;20502;-10
2022/09/18 03:43:05;;;;;;;2.17;1.10;;;21.80;46.90;;;;;;5049460;28;20537;-10
2022/09/18 03:45:31;;;;;;;1.55;0.90;;;21.90;46.90;;;;;;5031930;28;20053;-10
2022/09/18 03:47:57;;;;;;;1.63;1.08;;;21.90;46.90;;;;;;5047914;28;20082;-10
2022/09/18 03:50:23;;;;;;;0.90;0.70;;;21.90;46.90;;;;;;5030833;28;20118;-10
2022/09/18 03:52:49;;;;;;;1.25;0.90;;;21.80;46.90;;;;;;5030049;28;20475;-10
2022/09/18 03:55:35;;;;;;;1.10;0.90;;;21.90;46.80;;;;;;5049751;28;20106;-10
2022/09/18 03:58:04;;;;;;;1.33;0.98;;;21.90;46.80;;;;;;5049611;28;20052;-10
2022/09/18 04:01:02;;;;;;;1.13;0.77;;;21.90;46.90;;;;;;5050008;28;20060;-10
2022/09/18 04:03:37;;;;;;;2.05;0.98;;;21.90;46.80;;;;;;5031884;28;20053;-10
2022/09/18 04:06:21;;;;;;;1.38;1.02;;;21.80;46.80;;;;;;5049307;28;20056;-10
2022/09/18 04:09:21;;;;;;;2.10;1.10;;;21.90;46.80;;;;;;5030013;28;20153;-10
2022/09/18 04:11:49;;;;;;;1.08;0.90;;;21.80;47.40;;;;;;5047833;28;20049;-10
2022/09/18 04:14:16;;;;;;;1.05;0.80;;;21.80;46.90;;;;;;5047410;28;20116;-10
2022/09/18 04:16:43;;;;;;;1.35;1.02;;;21.80;46.80;;;;;;5047734;28;20053;-10
2022/09/18 04:19:09;;;;;;;1.17;1.00;;;21.90;46.80;;;;;;5029821;28;20050;-10
2022/09/18 04:21:37;;;;;;;1.10;0.85;;;21.90;46.80;;;;;;5048375;28;20367;-10
2022/09/18 04:24:03;;;;;;;0.90;0.77;;;21.90;46.80;;;;;;5030603;28;20049;-10
2022/09/18 04:26:29;;;;;;;1.15;0.77;;;21.80;46.80;;;;;;5047487;28;20056;-10
2022/09/18 04:28:58;;;;;;;1.40;1.00;;;21.90;46.80;;;;;;5046070;28;20140;-10
2022/09/18 04:31:23;;;;;;;1.67;1.00;;;21.80;46.80;;;;;;5033957;28;20501;-10
2022/09/18 04:33:49;;;;;;;1.27;0.95;;;21.80;46.80;;;;;;5034634;28;20140;-10
2022/09/18 04:36:16;;;;;;;2.03;1.15;;;21.90;46.80;;;;;;5033958;28;20490;-10
2022/09/18 04:38:43;;;;;;;1.20;0.90;;;21.80;46.80;;;;;;5033904;28;20055;-10
2022/09/18 04:41:08;;;;;;;1.70;1.23;;;21.80;46.80;;;;;;5050607;28;20053;-10
2022/09/18 04:43:34;;;;;;;2.30;1.00;;;21.80;46.80;;;;;;5050798;28;20092;-10
2022/09/18 04:46:00;;;;;;;1.58;1.08;;;21.80;46.80;;;;;;5032816;28;20479;-10
2022/09/18 04:48:25;;;;;;;1.00;0.90;;;21.80;46.80;;;;;;5032028;28;20587;-10
2022/09/18 04:50:52;;;;;;;2.33;1.20;;;21.80;46.80;;;;;;5050216;28;20053;-10
2022/09/18 04:53:18;;;;;;;2.65;1.17;;;21.80;46.90;;;;;;5051763;28;20132;-10
2022/09/18 04:55:46;;;;;;;3.03;0.98;;;21.80;46.80;;;;;;5033872;28;20466;-10
2022/09/18 04:58:15;;;;;;;1.10;0.82;;;21.80;46.80;;;;;;5032009;28;20053;-10
2022/09/18 05:00:46;;;;;;;1.40;1.00;;;21.80;46.80;;;;;;5033857;28;20052;-10
2022/09/18 05:03:13;;;;;;;1.40;0.82;;;21.80;46.80;;;;;;5051664;28;20284;-10
2022/09/18 05:05:41;;;;;;;1.83;1.00;;;21.80;46.80;;;;;;5032169;28;20053;-10
2022/09/18 05:08:08;;;;;;;2.38;0.85;;;21.80;46.80;;;;;;5033467;28;20153;-10
2022/09/18 05:10:34;;;;;;;1.63;0.80;;;21.80;46.80;;;;;;5051637;28;20161;-10
2022/09/18 05:13:00;;;;;;;1.23;1.00;;;21.80;46.80;;;;;;5050190;28;20056;-10
2022/09/18 05:15:27;;;;;;;1.15;0.85;;;21.80;46.80;;;;;;5031843;28;20080;-10
2022/09/18 05:18:01;;;;;;;0.98;0.82;;;21.80;46.80;;;;;;5050261;28;20049;-10
2022/09/18 05:20:29;;;;;;;1.48;1.10;;;21.80;46.80;;;;;;5033050;28;20060;-10
2022/09/18 05:22:59;;;;;;;1.70;0.80;;;21.80;46.70;;;;;;5033407;28;20048;-10
2022/09/18 05:25:27;;;;;;;1.23;1.13;;;21.80;46.70;;;;;;5033151;28;20054;-10
2022/09/18 05:27:58;;;;;;;1.10;0.90;;;21.80;46.70;;;;;;5051732;28;20487;-10
2022/09/18 05:30:29;;;;;;;1.50;1.20;;;21.90;46.70;;;;;;5033485;28;20098;-10
2022/09/18 05:33:03;;;;;;;2.05;1.10;;;21.80;46.70;;;;;;5032628;28;20573;-10
2022/09/18 05:35:31;;;;;;;1.02;0.90;;;21.90;46.70;;;;;;5033667;28;20045;-10
2022/09/18 05:37:59;;;;;;;1.73;1.10;;;21.90;46.70;;;;;;5033021;28;20060;-10
2022/09/18 05:40:29;;;;;;;1.35;0.90;;;21.80;46.70;;;;;;5048881;28;20577;-10
2022/09/18 05:42:57;;;;;;;1.40;1.00;;;21.80;46.70;;;;;;5032899;28;20110;-10
2022/09/18 05:45:23;;;;;;;1.85;0.90;;;21.80;46.70;;;;;;5031717;28;20517;-10
2022/09/18 05:47:57;;;;;;;1.52;1.00;;;21.80;46.70;;;;;;5031087;28;20379;-10
2022/09/18 05:50:25;;;;;;;1.40;1.08;;;21.80;46.70;;;;;;5038241;28;20394;-10
2022/09/18 05:53:11;;;;;;;2.17;0.95;;;21.80;46.70;;;;;;5031571;28;20518;-10
2022/09/18 05:55:49;;;;;;;1.83;1.00;;;21.80;46.70;;;;;;5032748;28;20048;-11
2022/09/18 05:58:16;;;;;;;1.05;0.90;;;21.80;46.70;;;;;;5033082;28;20049;-10
2022/09/18 06:00:43;;;;;;;1.45;0.90;;;21.80;46.70;;;;;;5033571;28;20478;-10
2022/09/18 06:03:15;;;;;;;1.52;0.88;;;21.80;46.60;;;;;;5032955;28;20504;-10
2022/09/18 06:05:42;;;;;;;1.40;1.00;;;21.80;46.60;;;;;;5032912;28;20074;-10
2022/09/18 06:08:13;;;;;;;1.45;1.23;;;21.80;46.60;;;;;;5049710;28;20045;-10
2022/09/18 06:10:40;;;;;;;1.65;1.00;;;21.80;46.60;;;;;;5047959;28;20487;-10
2022/09/18 06:13:11;;;;;;;3.28;1.00;;;21.90;46.60;;;;;;5032829;28;20486;-10
2022/09/18 06:15:46;;;;;;;2.15;1.15;;;21.80;46.60;;;;;;5031614;28;20053;-10
2022/09/18 06:18:14;;;;;;;0.93;0.80;;;21.80;46.60;;;;;;5033025;28;20070;-10
2022/09/18 06:20:43;;;;;;;1.20;0.90;;;21.90;46.60;;;;;;5033427;28;20401;-10
2022/09/18 06:23:11;;;;;;;0.80;0.80;;;21.80;46.60;;;;;;5050595;28;20482;-10
2022/09/18 06:25:47;;;;;;;2.08;0.82;;;21.90;46.60;;;;;;5049224;28;20478;-10
2022/09/18 06:28:15;;;;;;;1.15;0.98;;;21.90;46.60;;;;;;5033041;28;20056;-10
2022/09/18 06:30:42;;;;;;;1.40;1.08;;;21.80;46.20;;;;;;5049127;28;20059;-10
2022/09/18 06:33:10;;;;;;;1.02;0.80;;;21.90;46.60;;;;;;5032658;28;20513;-10
2022/09/18 06:35:41;;;;;;;0.95;0.80;;;21.90;46.60;;;;;;5048522;28;20045;-10
2022/09/18 06:38:09;;;;;;;1.67;0.95;;;21.90;46.50;;;;;;5032287;28;20188;-10
2022/09/18 06:40:48;;;;;;;0.80;0.80;;;21.90;46.50;;;;;;5032604;28;20542;-10
2022/09/18 06:43:22;;;;;;;1.80;0.82;;;21.90;46.50;;;;;;5032481;28;20084;-10
2022/09/18 06:46:13;;;;;;;0.90;0.82;;;21.90;47.00;;;;;;5026744;28;20447;-10
2022/09/18 06:48:43;;;;;;;1.02;0.90;;;21.90;46.40;;;;;;5030606;28;20058;-10
2022/09/18 06:51:10;;;;;;;0.98;0.75;;;21.90;46.40;;;;;;5048788;28;20057;-10
2022/09/18 06:53:54;;;;;;;1.42;0.90;;;21.90;47.00;;;;;;5049260;28;20101;-10
2022/09/18 06:56:20;;;;;;;1.70;1.08;;;21.90;46.40;;;;;;5048793;28;20448;-10
2022/09/18 06:58:46;;;;;;;1.17;0.70;;;21.90;46.40;;;;;;5031488;28;20049;-10
2022/09/18 07:01:16;;;;;;;1.48;0.80;;;21.90;46.40;;;;;;5047908;28;20102;-10
2022/09/18 07:03:48;;;;;;;1.98;0.85;;;22.00;46.20;;;;;;5048847;28;20085;-10
2022/09/18 07:06:19;;;;;;;1.38;0.90;;;22.20;46.00;;;;;;5032018;28;20134;-10
2022/09/18 07:08:47;;;;;;;2.35;1.13;;;22.30;45.60;;;;;;5049362;28;20386;-10
2022/09/18 07:11:19;;;;;;;1.23;0.82;;;22.50;45.40;;;;;;5031378;28;20061;-10
2022/09/18 07:13:46;;;;;;;1.67;0.90;;;22.50;45.20;;;;;;5046850;28;20079;-10
2022/09/18 07:16:12;;;;;;;1.58;0.98;;;22.40;45.30;;;;;;5050396;28;20049;-10
2022/09/18 07:18:39;;;;;;;1.92;0.93;;;22.30;45.50;;;;;;5050151;28;20053;-10
2022/09/18 07:21:05;;;;;;;1.10;0.90;;;22.30;45.60;;;;;;5047298;28;20046;-10
2022/09/18 07:23:36;;;;;;;1.45;0.75;;;22.20;45.70;;;;;;5050647;28;20389;-10
2022/09/18 07:26:03;;;;;;;1.15;1.00;;;22.20;45.80;;;;;;5032256;28;20133;-10
2022/09/18 07:28:28;;;;;;;1.08;0.70;;;22.20;45.80;;;;;;5049770;28;20409;-10
2022/09/18 07:31:03;;;;;;;2.80;1.05;;;22.30;45.70;;;;;;5048638;28;20059;-10
2022/09/18 07:33:29;;;;;;;1.15;0.80;;;22.40;45.40;;;;;;5031741;28;20114;-10
2022/09/18 07:36:00;;;;;;;1.15;0.88;;;22.60;45.00;;;;;;5031035;28;20506;-10
2022/09/18 07:38:25;;;;;;;1.13;0.82;;;22.60;44.80;;;;;;5031630;28;20052;-10
2022/09/18 07:40:54;;;;;;;1.05;0.77;;;22.60;44.90;;;;;;5047544;28;20045;-10
2022/09/18 07:43:27;;;;;;;1.05;0.95;;;22.50;45.00;;;;;;5050283;28;20136;-10
2022/09/18 07:45:53;;;;;;;2.15;0.80;;;22.60;45.00;;;;;;5029910;28;20211;-10
2022/09/18 07:48:19;;;;;;;2.40;1.08;;;22.70;44.80;;;;;;5031150;28;20049;-10
2022/09/18 07:50:48;;;;;;;1.08;0.80;;;22.80;44.60;;;;;;5048247;28;20057;-10
2022/09/18 07:53:16;;;;;;;1.13;0.77;;;22.90;44.40;;;;;;5032090;28;20148;-10
2022/09/18 07:55:46;;;;;;;2.25;1.02;;;22.80;44.40;;;;;;5031492;28;20068;-10
2022/09/18 07:58:12;;;;;;;0.88;0.77;;;22.90;44.40;;;;;;5030236;28;20060;-10
2022/09/18 08:01:05;;;;;;;1.00;0.75;;;22.80;44.50;;;;;;5047011;28;20102;-10
2022/09/18 08:03:33;;;;;;;4.80;1.42;;;22.80;44.60;;;;;;5031608;28;20430;-10
2022/09/18 08:06:24;;;;;;;1.48;1.02;;;22.70;44.60;;;;;;5052045;28;20041;-10
2022/09/18 08:09:03;;;;;;;2.00;0.90;;;22.70;44.60;;;;;;5050154;28;20152;-10
2022/09/18 08:11:52;;;;;;;0.80;0.80;;;22.80;44.50;;;;;;4971375;28;20149;-10
2022/09/18 08:14:26;;;;;;;1.15;0.90;;;22.90;44.30;;;;;;5028148;28;20117;-10
2022/09/18 08:17:10;;;;;;;2.05;1.00;;;22.90;44.30;;;;;;5052531;28;20410;-10
2022/09/18 08:19:39;;;;;;;1.35;0.90;;;22.70;44.50;;;;;;5050793;28;20059;-10
2022/09/18 08:22:37;;;;;;;1.45;1.10;;;22.60;44.70;;;;;;5050432;28;20044;-10
2022/09/18 08:25:03;;;;;;;1.80;1.00;;;22.50;44.90;;;;;;5034067;28;20094;-10
2022/09/18 08:27:29;;;;;;;1.02;0.90;;;22.50;45.00;;;;;;5050659;28;20053;-11
2022/09/18 08:29:54;;;;;;;1.85;1.05;;;22.50;45.00;;;;;;5050716;28;20144;-10
2022/09/18 08:32:21;;;;;;;1.98;1.10;;;22.50;45.10;;;;;;5052019;28;20048;-10
2022/09/18 08:34:47;;;;;;;1.58;0.90;;;22.60;44.90;;;;;;5050042;28;20049;-10
2022/09/18 08:37:14;;;;;;;1.58;0.80;;;22.60;44.80;;;;;;5034447;28;20057;-10
2022/09/18 08:39:58;;;;;;;0.82;0.75;;;22.60;44.70;;;;;;5048592;28;20147;-10
2022/09/18 08:42:46;;;;;;;2.03;0.90;;;22.60;44.80;;;;;;5050610;28;20052;-10
2022/09/18 08:45:14;;;;;;;2.08;1.17;;;22.60;44.90;;;;;;5051747;28;20135;-10
2022/09/18 08:47:54;;;;;;;0.93;0.70;;;22.50;45.00;;;;;;5050503;28;20418;-10
2022/09/18 08:50:26;;;;;;;1.83;1.10;;;22.50;45.10;;;;;;5031924;28;20050;-10
2022/09/18 08:53:17;;;;;;;0.63;0.63;;;22.50;45.10;;;;;;5033420;28;20061;-10
2022/09/18 08:56:03;;;;;;;1.10;0.82;;;22.40;45.20;;;;;;5033875;28;20148;-10
2022/09/18 08:58:57;;;;;;;1.58;1.02;;;22.50;45.10;;;;;;5033806;28;20057;-10
2022/09/18 09:01:37;;;;;;;1.67;1.05;;;22.50;45.00;;;;;;5034054;28;20057;-10
2022/09/18 09:04:19;;;;;;;1.30;0.95;;;22.50;45.00;;;;;;5034109;28;20061;-10
2022/09/18 09:07:34;;;;;;;0.98;0.75;;;22.50;44.90;;;;;;5033253;28;20532;-10
2022/09/18 09:10:23;;;;;;;1.38;0.93;;;22.50;44.90;;;;;;5033947;28;20068;-10
2022/09/18 09:13:08;;;;;;;2.15;0.95;;;22.50;45.00;;;;;;5047162;28;20049;-10
2022/09/18 09:15:57;;;;;;;0.80;0.80;;;22.40;45.10;;;;;;5033460;28;20041;-10
2022/09/18 09:18:55;;;;;;;0.88;0.68;;;22.40;45.20;;;;;;5033434;28;20077;-10
2022/09/18 09:21:40;;;;;;;2.45;0.77;;;22.40;45.30;;;;;;5033323;28;20101;-10
2022/09/18 09:24:24;;;;;;;1.17;0.80;;;22.30;45.30;;;;;;5049981;28;20056;-10
2022/09/18 09:27:25;;;;;;;1.95;0.90;;;22.30;45.40;;;;;;5028104;28;20102;-10
2022/09/18 09:30:11;;;;;;;1.08;0.88;;;22.40;45.40;;;;;;5033313;28;20045;-10
2022/09/18 09:33:29;;;;;;;1.33;0.77;;;22.40;45.30;;;;;;5036378;28;20403;-10
2022/09/18 09:36:23;;;;;;;2.35;0.90;;;22.40;45.30;;;;;;5022592;28;20443;-10
2022/09/18 09:38:48;;;;;;;1.92;0.85;;;22.30;45.30;;;;;;5033045;28;20185;-10
2022/09/18 09:41:46;;;;;;;2.65;0.90;;;22.30;45.40;;;;;;5032690;28;20095;-10
2022/09/18 09:44:40;;;;;;;1.10;0.80;;;22.30;45.30;;;;;;5033977;28;20053;-10
2022/09/18 09:47:21;;;;;;;0.88;0.80;;;22.40;45.30;;;;;;5033074;28;20053;-10
2022/09/18 09:50:05;;;;;;;2.10;1.00;;;22.30;45.30;;;;;;5033351;28;20075;-10
2022/09/18 09:52:36;;;;;;;1.30;0.88;;;22.30;45.40;;;;;;5033418;28;20045;-10
2022/09/18 09:55:12;;;;;;;1.95;0.80;;;22.40;45.30;;;;;;5033244;28;20049;-10
2022/09/18 09:57:54;;;;;;;1.17;0.75;;;22.40;45.30;;;;;;5049516;28;20056;-10
2022/09/18 10:00:20;;;;;;;2.33;0.70;;;22.30;45.30;;;;;;5048667;28;20049;-10
2022/09/18 10:03:15;;;;;;;2.00;0.90;;;22.30;45.30;;;;;;5032653;28;20072;-10
2022/09/18 10:05:51;;;;;;;1.00;0.90;;;22.30;45.50;;;;;;5049517;28;20102;-11
2022/09/18 10:08:54;;;;;;;0.73;0.60;;;22.20;45.50;;;;;;5050856;28;20409;-10
2022/09/18 10:11:20;;;;;;;0.98;0.70;;;22.30;45.50;;;;;;5050090;28;20049;-10
2022/09/18 10:14:16;;;;;;;1.35;0.73;;;22.20;45.50;;;;;;5033288;28;20049;-10
2022/09/18 10:16:46;;;;;;;0.85;0.75;;;22.20;45.50;;;;;;5031896;28;20080;-10
2022/09/18 10:19:16;;;;;;;0.63;0.63;;;22.20;45.50;;;;;;5031990;28;20113;-10
2022/09/18 10:21:42;;;;;;;1.83;0.70;;;22.20;45.50;;;;;;5050657;28;20081;-10
2022/09/18 10:24:29;;;;;;;1.40;0.90;;;22.20;45.50;;;;;;5032682;28;20085;-10
2022/09/18 10:27:08;;;;;;;0.60;0.55;;;22.20;45.70;;;;;;5031771;28;20053;-10
2022/09/18 10:29:34;;;;;;;1.95;0.98;;;22.20;45.50;;;;;;5028946;28;20464;-10
2022/09/18 10:32:01;;;;;;;0.95;0.60;;;22.20;45.50;;;;;;5049678;28;20081;-10
2022/09/18 10:34:46;;;;;;;0.77;0.65;;;22.20;45.40;;;;;;5032495;28;20048;-10
2022/09/18 10:37:29;;;;;;;1.20;0.80;;;22.30;45.40;;;;;;5033050;28;20049;-10
2022/09/18 10:40:06;;;;;;;1.10;0.90;;;22.30;45.30;;;;;;5049166;28;20053;-10
2022/09/18 10:42:34;;;;;;;2.67;1.05;;;22.30;45.20;;;;;;5050406;28;20052;-10
2022/09/18 10:45:25;;;;;;;1.52;1.05;;;22.30;45.20;;;;;;5033105;28;20351;-10
2022/09/18 10:48:15;;;;;;;1.83;0.90;;;22.40;45.30;;;;;;5030841;28;20057;-10
2022/09/18 10:50:54;;;;;;;1.63;1.10;;;22.30;45.30;;;;;;5033099;28;20099;-10
2022/09/18 10:53:37;;;;;;;1.45;0.80;;;22.30;45.30;;;;;;5032981;28;20501;-10
2022/09/18 10:56:18;;;;;;;0.85;0.70;;;22.30;45.30;;;;;;5032854;28;20041;-10
2022/09/18 10:58:43;;;;;;;1.33;0.82;;;22.30;45.40;;;;;;5050746;28;20053;-10
2022/09/18 11:01:11;;;;;;;1.00;0.60;;;22.30;45.40;;;;;;5050232;28;20059;-10
2022/09/18 11:03:57;;;;;;;1.27;0.90;;;22.20;45.40;;;;;;5030488;28;20053;-10
2022/09/18 11:06:28;;;;;;;1.20;0.70;;;22.20;45.40;;;;;;5049094;28;20547;-10
2022/09/18 11:09:00;;;;;;;2.22;1.05;;;22.30;45.40;;;;;;5030558;28;20490;-10
2022/09/18 11:11:30;;;;;;;2.08;0.90;;;22.30;45.40;;;;;;5032102;28;20049;-10
2022/09/18 11:14:05;;;;;;;0.68;0.63;;;22.30;45.40;;;;;;5032121;28;20049;-10
2022/09/18 11:16:51;;;;;;;1.30;0.80;;;22.30;45.40;;;;;;5048878;28;20081;-10
2022/09/18 11:19:32;;;;;;;1.55;0.90;;;22.30;45.40;;;;;;5031798;28;20057;-10
2022/09/18 11:22:04;;;;;;;1.05;0.85;;;22.30;45.30;;;;;;5032026;28;20056;-10
2022/09/18 11:24:37;;;;;;;1.65;0.88;;;22.30;45.30;;;;;;5032561;28;20057;-10
2022/09/18 11:27:21;;;;;;;1.38;0.70;;;22.30;45.20;;;;;;5048537;28;20549;-10
2022/09/18 11:29:48;;;;;;;1.15;0.90;;;22.30;45.20;;;;;;5032000;28;20044;-10
2022/09/18 11:32:30;;;;;;;0.75;0.70;;;22.30;45.20;;;;;;5048395;28;20113;-10
2022/09/18 11:35:04;;;;;;;1.25;0.80;;;22.30;45.20;;;;;;5031977;28;20045;-10
2022/09/18 11:37:38;;;;;;;1.88;0.80;;;22.30;45.10;;;;;;5031682;28;20057;-10
2022/09/18 11:40:23;;;;;;;0.63;0.63;;;22.40;45.10;;;;;;5049205;28;20056;-10
2022/09/18 11:42:52;;;;;;;1.05;0.75;;;22.40;45.10;;;;;;5030657;28;20073;-10
2022/09/18 11:45:49;;;;;;;1.70;0.88;;;22.40;45.10;;;;;;5030041;28;20049;-10
2022/09/18 11:48:43;;;;;;;1.38;0.70;;;22.40;45.00;;;;;;5031447;28;20460;-11
2022/09/18 11:51:20;;;;;;;2.03;0.98;;;22.50;44.90;;;;;;5049465;28;20376;-10
2022/09/18 11:53:54;;;;;;;1.70;0.98;;;22.50;44.90;;;;;;5032132;28;20076;-10
2022/09/18 11:56:33;;;;;;;0.90;0.70;;;22.50;44.80;;;;;;5049604;28;20060;-10
2022/09/18 11:59:21;;;;;;;1.17;0.93;;;22.50;44.70;;;;;;5047459;28;20081;-10
2022/09/18 12:01:54;;;;;;;1.00;0.63;;;22.50;44.70;;;;;;5049635;28;20145;-10
2022/09/18 12:04:37;;;;;;;0.73;0.60;;;22.50;44.70;;;;;;5031804;28;20083;-10
2022/09/18 12:07:44;;;;;;;1.15;0.85;;;22.50;44.80;;;;;;5031223;28;20064;-10
2022/09/18 12:10:49;;;;;;;1.40;0.65;;;22.40;44.90;;;;;;5030016;28;20054;-10
2022/09/18 12:13:45;;;;;;;1.27;0.93;;;22.40;45.00;;;;;;5030606;28;20101;-10
2022/09/18 12:16:32;;;;;;;1.65;0.90;;;22.40;44.90;;;;;;5031202;28;20489;-10
2022/09/18 12:19:49;;;;;;;1.23;0.80;;;22.40;45.00;;;;;;5048925;28;20135;-10
2022/09/18 12:22:43;;;;;;;1.92;0.82;;;22.40;45.00;;;;;;5052944;28;20056;-10
2022/09/18 12:25:14;;;;;;;1.25;0.90;;;22.40;45.00;;;;;;5069608;28;20076;-10
2022/09/18 12:28:07;;;;;;;1.33;0.77;;;22.40;44.90;;;;;;5049044;28;20053;-10
2022/09/18 12:31:17;;;;;;;0.77;0.77;;;22.40;44.90;;;;;;5030985;28;20072;-10
2022/09/18 12:34:03;;;;;;;1.35;0.73;;;22.40;44.90;;;;;;5049050;28;20060;-10
2022/09/18 12:36:50;;;;;;;1.02;0.68;;;22.50;44.90;;;;;;5049179;28;20045;-10
2022/09/18 12:39:30;;;;;;;1.20;0.80;;;22.50;44.80;;;;;;5048857;28;20053;-10
2022/09/18 12:42:11;;;;;;;1.13;0.80;;;22.50;44.70;;;;;;5049360;28;20057;-10
2022/09/18 12:45:14;;;;;;;1.63;0.98;;;22.50;44.70;;;;;;5047993;28;20057;-10
2022/09/18 12:48:00;;;;;;;0.88;0.60;;;22.50;44.60;;;;;;5048582;28;20056;-10
2022/09/18 12:50:54;;;;;;;1.35;0.90;;;22.50;44.70;;;;;;5048432;28;20061;-10
2022/09/18 12:53:36;;;;;;;1.33;0.90;;;22.50;44.70;;;;;;5052002;28;20103;-10
2022/09/18 12:56:19;;;;;;;1.98;0.70;;;22.50;44.80;;;;;;5051816;28;20053;-10
2022/09/18 12:59:18;;;;;;;1.88;0.90;;;22.50;44.80;;;;;;5051995;28;20045;-10
2022/09/18 13:02:00;;;;;;;1.15;0.80;;;22.50;44.80;;;;;;5051601;28;20095;-10
2022/09/18 13:04:28;;;;;;;0.93;0.80;;;22.50;44.90;;;;;;5051641;28;20509;-10
2022/09/18 13:07:05;;;;;;;0.98;0.70;;;22.40;44.90;;;;;;5051689;28;20474;-10
2022/09/18 13:09:42;;;;;;;1.50;0.98;;;22.40;44.90;;;;;;5051607;28;20141;-10
2022/09/18 13:12:19;;;;;;;1.20;0.80;;;22.40;44.90;;;;;;5051515;28;20473;-10
2022/09/18 13:14:53;;;;;;;1.23;0.73;;;22.40;44.90;;;;;;5051523;28;20049;-10
2022/09/18 13:17:35;;;;;;;1.83;0.70;;;22.40;44.90;;;;;;5051686;28;20057;-10
2022/09/18 13:20:14;;;;;;;0.90;0.82;;;22.40;44.90;;;;;;5051329;28;20053;-10
2022/09/18 13:22:43;;;;;;;0.70;0.60;;;22.40;44.90;;;;;;5051573;28;20059;-10
2022/09/18 13:25:38;;;;;;;0.90;0.73;;;22.40;44.90;;;;;;5051066;28;20049;-10
2022/09/18 13:28:12;;;;;;;1.10;0.80;;;22.40;44.80;;;;;;5051112;28;20049;-10
2022/09/18 13:30:39;;;;;;;0.95;0.73;;;22.40;44.90;;;;;;5051648;28;20053;-10